Terminal Aerodrome Forecast
Issued by NWS Shreveport, LA

Home | Current Version | Previous Version | Text Only | Print | Product List | Glossary On
Versions: 1 2 3 4 5 6 7 8 9 10 11 12 13 14 15 16 17
678
FTUS44 KSHV 202322
TAFTYR
TAF
KTYR 202322Z 2100/2124 18012KT P6SM OVC015
      TEMPO 2100/2104 OVC008
     FM210400 17012KT P6SM OVC008
      TEMPO 2106/2110 5SM BR OVC005
     FM211000 18012KT 5SM BR OVC005
     FM211600 18014G22KT P6SM OVC007
     FM212000 18015G25KT P6SM VCSH OVC010=

USA.gov is the U.S. government's official web portal to all federal, state and local government web resources and services.